sensor_id;sensor_type;location;lat;lon;timestamp;P1;durP1;ratioP1;P2;durP2;ratioP2
12482;SDS011;6306;47.134;15.344;2022-12-29T00:01:55;9.03;;;6.80;;
12482;SDS011;6306;47.134;15.344;2022-12-29T00:04:21;8.27;;;6.60;;
12482;SDS011;6306;47.134;15.344;2022-12-29T00:06:48;7.13;;;5.83;;
12482;SDS011;6306;47.134;15.344;2022-12-29T00:09:14;7.63;;;5.77;;
12482;SDS011;6306;47.134;15.344;2022-12-29T00:11:41;9.03;;;5.70;;
12482;SDS011;6306;47.134;15.344;2022-12-29T00:14:08;8.60;;;6.33;;
12482;SDS011;6306;47.134;15.344;2022-12-29T00:16:53;8.30;;;5.60;;
12482;SDS011;6306;47.134;15.344;2022-12-29T00:19:19;7.53;;;5.27;;
12482;SDS011;6306;47.134;15.344;2022-12-29T00:22:04;11.10;;;4.93;;
12482;SDS011;6306;47.134;15.344;2022-12-29T00:24:49;11.43;;;5.80;;
12482;SDS011;6306;47.134;15.344;2022-12-29T00:27:30;8.80;;;6.77;;
12482;SDS011;6306;47.134;15.344;2022-12-29T00:30:17;8.90;;;6.50;;
12482;SDS011;6306;47.134;15.344;2022-12-29T00:33:12;8.93;;;6.70;;
12482;SDS011;6306;47.134;15.344;2022-12-29T00:38:30;7.10;;;5.67;;
12482;SDS011;6306;47.134;15.344;2022-12-29T00:41:15;7.93;;;5.73;;
12482;SDS011;6306;47.134;15.344;2022-12-29T00:44:00;8.80;;;5.50;;
12482;SDS011;6306;47.134;15.344;2022-12-29T00:46:38;8.27;;;6.10;;
12482;SDS011;6306;47.134;15.344;2022-12-29T00:49:05;9.93;;;5.90;;
12482;SDS011;6306;47.134;15.344;2022-12-29T00:51:50;10.93;;;7.20;;
12482;SDS011;6306;47.134;15.344;2022-12-29T00:54:16;8.60;;;5.40;;
12482;SDS011;6306;47.134;15.344;2022-12-29T00:56:43;11.40;;;5.77;;
12482;SDS011;6306;47.134;15.344;2022-12-29T00:59:09;9.30;;;5.60;;
12482;SDS011;6306;47.134;15.344;2022-12-29T01:01:36;8.20;;;6.10;;
12482;SDS011;6306;47.134;15.344;2022-12-29T01:04:02;9.30;;;5.97;;
12482;SDS011;6306;47.134;15.344;2022-12-29T01:06:28;9.50;;;5.77;;
12482;SDS011;6306;47.134;15.344;2022-12-29T01:08:54;6.83;;;5.97;;
12482;SDS011;6306;47.134;15.344;2022-12-29T01:11:43;7.17;;;5.67;;
12482;SDS011;6306;47.134;15.344;2022-12-29T01:14:09;8.83;;;6.13;;
12482;SDS011;6306;47.134;15.344;2022-12-29T01:16:35;10.87;;;7.77;;
12482;SDS011;6306;47.134;15.344;2022-12-29T01:19:01;8.43;;;5.57;;
12482;SDS011;6306;47.134;15.344;2022-12-29T01:21:27;9.53;;;5.57;;
12482;SDS011;6306;47.134;15.344;2022-12-29T01:23:53;6.60;;;5.27;;
12482;SDS011;6306;47.134;15.344;2022-12-29T01:26:20;6.57;;;5.70;;
12482;SDS011;6306;47.134;15.344;2022-12-29T01:28:46;12.40;;;7.40;;
12482;SDS011;6306;47.134;15.344;2022-12-29T01:31:12;9.60;;;6.47;;
12482;SDS011;6306;47.134;15.344;2022-12-29T01:33:39;10.40;;;6.00;;
12482;SDS011;6306;47.134;15.344;2022-12-29T01:36:06;9.83;;;5.80;;
12482;SDS011;6306;47.134;15.344;2022-12-29T01:38:32;8.53;;;6.63;;
12482;SDS011;6306;47.134;15.344;2022-12-29T01:40:59;7.63;;;5.60;;
12482;SDS011;6306;47.134;15.344;2022-12-29T01:48:45;7.10;;;4.90;;
12482;SDS011;6306;47.134;15.344;2022-12-29T01:51:12;8.10;;;5.13;;
12482;SDS011;6306;47.134;15.344;2022-12-29T01:53:38;6.43;;;5.43;;
12482;SDS011;6306;47.134;15.344;2022-12-29T01:56:04;5.87;;;5.30;;
12482;SDS011;6306;47.134;15.344;2022-12-29T01:58:33;7.10;;;3.93;;
12482;SDS011;6306;47.134;15.344;2022-12-29T02:01:02;6.00;;;4.83;;
12482;SDS011;6306;47.134;15.344;2022-12-29T02:03:28;7.67;;;5.07;;
12482;SDS011;6306;47.134;15.344;2022-12-29T02:08:29;9.80;;;5.40;;
12482;SDS011;6306;47.134;15.344;2022-12-29T02:10:56;8.60;;;4.77;;
12482;SDS011;6306;47.134;15.344;2022-12-29T02:13:25;7.83;;;5.20;;
12482;SDS011;6306;47.134;15.344;2022-12-29T02:29:01;10.10;;;5.50;;
12482;SDS011;6306;47.134;15.344;2022-12-29T02:31:40;9.20;;;5.10;;
12482;SDS011;6306;47.134;15.344;2022-12-29T02:44:48;5.80;;;4.43;;
12482;SDS011;6306;47.134;15.344;2022-12-29T02:47:22;6.70;;;4.63;;
12482;SDS011;6306;47.134;15.344;2022-12-29T02:49:52;8.17;;;5.23;;
12482;SDS011;6306;47.134;15.344;2022-12-29T02:52:21;7.73;;;5.43;;
12482;SDS011;6306;47.134;15.344;2022-12-29T02:54:49;11.33;;;5.77;;
12482;SDS011;6306;47.134;15.344;2022-12-29T02:59:42;9.63;;;5.07;;
12482;SDS011;6306;47.134;15.344;2022-12-29T03:03:13;14.63;;;8.50;;
12482;SDS011;6306;47.134;15.344;2022-12-29T03:12:48;11.60;;;7.70;;
12482;SDS011;6306;47.134;15.344;2022-12-29T03:15:40;12.77;;;7.60;;
12482;SDS011;6306;47.134;15.344;2022-12-29T03:18:41;9.80;;;6.17;;
12482;SDS011;6306;47.134;15.344;2022-12-29T03:21:12;9.90;;;5.27;;
12482;SDS011;6306;47.134;15.344;2022-12-29T03:23:40;6.63;;;4.97;;
12482;SDS011;6306;47.134;15.344;2022-12-29T03:26:08;10.33;;;5.33;;
12482;SDS011;6306;47.134;15.344;2022-12-29T03:28:37;14.83;;;5.23;;
12482;SDS011;6306;47.134;15.344;2022-12-29T03:31:04;5.90;;;4.87;;
12482;SDS011;6306;47.134;15.344;2022-12-29T03:33:30;8.33;;;5.90;;
12482;SDS011;6306;47.134;15.344;2022-12-29T03:35:58;8.00;;;4.90;;
12482;SDS011;6306;47.134;15.344;2022-12-29T03:38:38;7.27;;;4.77;;
12482;SDS011;6306;47.134;15.344;2022-12-29T03:41:09;9.40;;;4.80;;
12482;SDS011;6306;47.134;15.344;2022-12-29T03:43:36;6.43;;;4.47;;
12482;SDS011;6306;47.134;15.344;2022-12-29T03:46:02;17.43;;;6.73;;
12482;SDS011;6306;47.134;15.344;2022-12-29T03:48:29;11.33;;;4.80;;
12482;SDS011;6306;47.134;15.344;2022-12-29T03:50:55;8.00;;;4.57;;
12482;SDS011;6306;47.134;15.344;2022-12-29T03:53:21;5.13;;;3.80;;
12482;SDS011;6306;47.134;15.344;2022-12-29T03:55:47;6.73;;;4.50;;
12482;SDS011;6306;47.134;15.344;2022-12-29T03:58:13;9.40;;;4.83;;
12482;SDS011;6306;47.134;15.344;2022-12-29T04:00:39;5.70;;;3.80;;
12482;SDS011;6306;47.134;15.344;2022-12-29T04:03:05;3.90;;;3.60;;
12482;SDS011;6306;47.134;15.344;2022-12-29T04:05:31;10.77;;;5.23;;
12482;SDS011;6306;47.134;15.344;2022-12-29T04:07:57;5.37;;;4.00;;
12482;SDS011;6306;47.134;15.344;2022-12-29T04:10:23;7.23;;;5.43;;
12482;SDS011;6306;47.134;15.344;2022-12-29T04:12:49;4.70;;;3.80;;
12482;SDS011;6306;47.134;15.344;2022-12-29T04:15:15;6.13;;;4.67;;
12482;SDS011;6306;47.134;15.344;2022-12-29T04:17:41;9.93;;;5.03;;
12482;SDS011;6306;47.134;15.344;2022-12-29T04:20:07;5.63;;;3.80;;
12482;SDS011;6306;47.134;15.344;2022-12-29T04:23:01;6.40;;;4.93;;
12482;SDS011;6306;47.134;15.344;2022-12-29T04:25:28;6.83;;;4.30;;
12482;SDS011;6306;47.134;15.344;2022-12-29T04:27:54;6.27;;;4.70;;
12482;SDS011;6306;47.134;15.344;2022-12-29T04:30:20;9.00;;;5.00;;
12482;SDS011;6306;47.134;15.344;2022-12-29T04:32:46;7.50;;;5.70;;
12482;SDS011;6306;47.134;15.344;2022-12-29T04:35:12;5.70;;;4.40;;
12482;SDS011;6306;47.134;15.344;2022-12-29T04:37:38;5.03;;;3.67;;
12482;SDS011;6306;47.134;15.344;2022-12-29T04:40:04;6.37;;;4.67;;
12482;SDS011;6306;47.134;15.344;2022-12-29T04:42:30;4.77;;;4.03;;
12482;SDS011;6306;47.134;15.344;2022-12-29T04:44:56;6.60;;;4.27;;
12482;SDS011;6306;47.134;15.344;2022-12-29T04:47:22;10.53;;;5.93;;
12482;SDS011;6306;47.134;15.344;2022-12-29T04:49:48;5.37;;;3.80;;
12482;SDS011;6306;47.134;15.344;2022-12-29T04:52:14;5.50;;;3.53;;
12482;SDS011;6306;47.134;15.344;2022-12-29T04:54:40;6.67;;;3.70;;
12482;SDS011;6306;47.134;15.344;2022-12-29T04:57:06;7.73;;;4.27;;
12482;SDS011;6306;47.134;15.344;2022-12-29T04:59:32;6.43;;;4.07;;
12482;SDS011;6306;47.134;15.344;2022-12-29T05:01:58;4.80;;;4.33;;
12482;SDS011;6306;47.134;15.344;2022-12-29T05:04:24;6.57;;;4.40;;
12482;SDS011;6306;47.134;15.344;2022-12-29T05:06:50;6.60;;;4.63;;
12482;SDS011;6306;47.134;15.344;2022-12-29T05:09:16;5.80;;;5.20;;
12482;SDS011;6306;47.134;15.344;2022-12-29T05:11:42;7.10;;;4.93;;
12482;SDS011;6306;47.134;15.344;2022-12-29T05:14:08;9.57;;;5.17;;
12482;SDS011;6306;47.134;15.344;2022-12-29T05:16:34;10.43;;;5.93;;
12482;SDS011;6306;47.134;15.344;2022-12-29T05:19:00;7.73;;;5.37;;
12482;SDS011;6306;47.134;15.344;2022-12-29T05:21:26;11.80;;;6.27;;
12482;SDS011;6306;47.134;15.344;2022-12-29T05:23:53;12.93;;;6.30;;
12482;SDS011;6306;47.134;15.344;2022-12-29T05:26:19;11.40;;;6.07;;
12482;SDS011;6306;47.134;15.344;2022-12-29T05:28:45;8.00;;;5.83;;
12482;SDS011;6306;47.134;15.344;2022-12-29T05:31:11;6.03;;;4.93;;
12482;SDS011;6306;47.134;15.344;2022-12-29T05:33:37;8.13;;;5.67;;
12482;SDS011;6306;47.134;15.344;2022-12-29T05:36:04;6.17;;;4.73;;
12482;SDS011;6306;47.134;15.344;2022-12-29T05:38:30;7.63;;;4.97;;
12482;SDS011;6306;47.134;15.344;2022-12-29T05:40:56;11.10;;;7.33;;
12482;SDS011;6306;47.134;15.344;2022-12-29T05:43:22;8.70;;;6.37;;
12482;SDS011;6306;47.134;15.344;2022-12-29T05:45:48;10.87;;;6.00;;
12482;SDS011;6306;47.134;15.344;2022-12-29T05:48:15;8.63;;;6.07;;
12482;SDS011;6306;47.134;15.344;2022-12-29T05:50:41;5.10;;;4.60;;
12482;SDS011;6306;47.134;15.344;2022-12-29T05:53:07;9.70;;;5.60;;
12482;SDS011;6306;47.134;15.344;2022-12-29T05:55:33;6.67;;;5.13;;
12482;SDS011;6306;47.134;15.344;2022-12-29T05:57:59;11.00;;;7.10;;
12482;SDS011;6306;47.134;15.344;2022-12-29T06:00:25;11.63;;;6.80;;
12482;SDS011;6306;47.134;15.344;2022-12-29T06:02:51;16.30;;;9.40;;
12482;SDS011;6306;47.134;15.344;2022-12-29T06:05:17;10.37;;;6.70;;
12482;SDS011;6306;47.134;15.344;2022-12-29T06:07:43;11.40;;;7.13;;
12482;SDS011;6306;47.134;15.344;2022-12-29T06:10:10;8.43;;;6.37;;
12482;SDS011;6306;47.134;15.344;2022-12-29T06:12:36;13.23;;;7.50;;
12482;SDS011;6306;47.134;15.344;2022-12-29T06:15:02;12.47;;;7.27;;
12482;SDS011;6306;47.134;15.344;2022-12-29T06:17:28;11.17;;;8.27;;
12482;SDS011;6306;47.134;15.344;2022-12-29T06:19:54;11.80;;;6.50;;
12482;SDS011;6306;47.134;15.344;2022-12-29T06:22:20;13.60;;;6.73;;
12482;SDS011;6306;47.134;15.344;2022-12-29T06:24:46;7.60;;;5.90;;
12482;SDS011;6306;47.134;15.344;2022-12-29T06:27:12;8.53;;;6.30;;
12482;SDS011;6306;47.134;15.344;2022-12-29T06:29:39;13.90;;;7.83;;
12482;SDS011;6306;47.134;15.344;2022-12-29T06:32:05;7.77;;;6.90;;
12482;SDS011;6306;47.134;15.344;2022-12-29T06:34:31;9.57;;;7.13;;
12482;SDS011;6306;47.134;15.344;2022-12-29T06:36:57;12.10;;;6.97;;
12482;SDS011;6306;47.134;15.344;2022-12-29T06:39:23;13.03;;;8.60;;
12482;SDS011;6306;47.134;15.344;2022-12-29T06:41:53;12.20;;;6.33;;
12482;SDS011;6306;47.134;15.344;2022-12-29T06:44:22;9.70;;;6.30;;
12482;SDS011;6306;47.134;15.344;2022-12-29T06:46:48;9.73;;;7.17;;
12482;SDS011;6306;47.134;15.344;2022-12-29T06:49:14;8.37;;;5.60;;
12482;SDS011;6306;47.134;15.344;2022-12-29T06:51:41;14.83;;;7.63;;
12482;SDS011;6306;47.134;15.344;2022-12-29T06:54:07;13.10;;;7.60;;
12482;SDS011;6306;47.134;15.344;2022-12-29T06:56:33;10.57;;;6.53;;
12482;SDS011;6306;47.134;15.344;2022-12-29T06:58:59;11.43;;;8.97;;
12482;SDS011;6306;47.134;15.344;2022-12-29T07:01:26;11.87;;;7.30;;
12482;SDS011;6306;47.134;15.344;2022-12-29T07:03:52;10.30;;;7.17;;
12482;SDS011;6306;47.134;15.344;2022-12-29T07:06:18;13.63;;;7.10;;
12482;SDS011;6306;47.134;15.344;2022-12-29T07:08:44;8.80;;;6.97;;
12482;SDS011;6306;47.134;15.344;2022-12-29T07:11:10;12.57;;;8.63;;
12482;SDS011;6306;47.134;15.344;2022-12-29T07:13:36;14.53;;;8.77;;
12482;SDS011;6306;47.134;15.344;2022-12-29T07:16:06;13.33;;;10.00;;
12482;SDS011;6306;47.134;15.344;2022-12-29T07:18:32;10.90;;;8.07;;
12482;SDS011;6306;47.134;15.344;2022-12-29T07:20:58;9.40;;;7.30;;
12482;SDS011;6306;47.134;15.344;2022-12-29T07:23:24;11.47;;;8.13;;
12482;SDS011;6306;47.134;15.344;2022-12-29T07:25:50;12.50;;;8.63;;
12482;SDS011;6306;47.134;15.344;2022-12-29T07:28:23;10.93;;;7.80;;
12482;SDS011;6306;47.134;15.344;2022-12-29T07:30:49;16.67;;;8.53;;
12482;SDS011;6306;47.134;15.344;2022-12-29T07:33:16;16.10;;;8.20;;
12482;SDS011;6306;47.134;15.344;2022-12-29T07:35:41;12.47;;;8.40;;
12482;SDS011;6306;47.134;15.344;2022-12-29T07:38:08;17.30;;;8.70;;
12482;SDS011;6306;47.134;15.344;2022-12-29T07:40:34;9.60;;;7.47;;
12482;SDS011;6306;47.134;15.344;2022-12-29T07:43:00;13.73;;;8.43;;
12482;SDS011;6306;47.134;15.344;2022-12-29T07:45:26;16.83;;;9.57;;
12482;SDS011;6306;47.134;15.344;2022-12-29T07:47:52;10.30;;;7.63;;
12482;SDS011;6306;47.134;15.344;2022-12-29T07:50:18;10.67;;;6.67;;
12482;SDS011;6306;47.134;15.344;2022-12-29T07:52:44;11.17;;;8.17;;
12482;SDS011;6306;47.134;15.344;2022-12-29T07:55:11;10.07;;;7.70;;
12482;SDS011;6306;47.134;15.344;2022-12-29T07:57:38;14.23;;;9.00;;
12482;SDS011;6306;47.134;15.344;2022-12-29T08:00:04;12.33;;;7.90;;
12482;SDS011;6306;47.134;15.344;2022-12-29T08:02:30;10.33;;;7.43;;
12482;SDS011;6306;47.134;15.344;2022-12-29T08:04:56;9.77;;;7.70;;
12482;SDS011;6306;47.134;15.344;2022-12-29T08:07:22;13.83;;;9.13;;
12482;SDS011;6306;47.134;15.344;2022-12-29T08:09:48;15.60;;;10.23;;
12482;SDS011;6306;47.134;15.344;2022-12-29T08:12:14;19.87;;;10.40;;
12482;SDS011;6306;47.134;15.344;2022-12-29T08:14:40;30.40;;;13.13;;
12482;SDS011;6306;47.134;15.344;2022-12-29T08:17:06;22.00;;;14.87;;
12482;SDS011;6306;47.134;15.344;2022-12-29T08:19:32;32.10;;;16.13;;
12482;SDS011;6306;47.134;15.344;2022-12-29T08:21:58;26.07;;;15.87;;
12482;SDS011;6306;47.134;15.344;2022-12-29T08:24:24;24.10;;;14.27;;
12482;SDS011;6306;47.134;15.344;2022-12-29T08:26:50;25.57;;;14.93;;
12482;SDS011;6306;47.134;15.344;2022-12-29T08:29:16;21.63;;;13.70;;
12482;SDS011;6306;47.134;15.344;2022-12-29T08:31:42;17.63;;;12.03;;
12482;SDS011;6306;47.134;15.344;2022-12-29T08:34:08;17.83;;;10.80;;
12482;SDS011;6306;47.134;15.344;2022-12-29T08:36:35;17.53;;;11.00;;
12482;SDS011;6306;47.134;15.344;2022-12-29T08:39:01;16.50;;;11.00;;
12482;SDS011;6306;47.134;15.344;2022-12-29T08:41:27;16.77;;;9.60;;
12482;SDS011;6306;47.134;15.344;2022-12-29T08:43:53;20.17;;;9.67;;
12482;SDS011;6306;47.134;15.344;2022-12-29T08:46:19;18.93;;;10.33;;
12482;SDS011;6306;47.134;15.344;2022-12-29T08:48:45;20.03;;;11.40;;
12482;SDS011;6306;47.134;15.344;2022-12-29T08:51:12;16.97;;;10.97;;
12482;SDS011;6306;47.134;15.344;2022-12-29T08:53:38;20.30;;;12.10;;
12482;SDS011;6306;47.134;15.344;2022-12-29T08:56:05;20.03;;;12.77;;
12482;SDS011;6306;47.134;15.344;2022-12-29T08:58:31;23.30;;;13.20;;
12482;SDS011;6306;47.134;15.344;2022-12-29T09:00:57;23.47;;;11.83;;
12482;SDS011;6306;47.134;15.344;2022-12-29T09:03:24;23.43;;;12.27;;
12482;SDS011;6306;47.134;15.344;2022-12-29T09:05:51;20.87;;;12.97;;
12482;SDS011;6306;47.134;15.344;2022-12-29T09:08:17;25.13;;;12.33;;
12482;SDS011;6306;47.134;15.344;2022-12-29T09:10:44;19.13;;;11.13;;
12482;SDS011;6306;47.134;15.344;2022-12-29T09:13:11;25.57;;;12.73;;
12482;SDS011;6306;47.134;15.344;2022-12-29T09:15:37;21.43;;;10.77;;
12482;SDS011;6306;47.134;15.344;2022-12-29T09:18:03;17.37;;;10.90;;
12482;SDS011;6306;47.134;15.344;2022-12-29T09:20:29;14.37;;;8.10;;
12482;SDS011;6306;47.134;15.344;2022-12-29T09:22:55;12.97;;;8.90;;
12482;SDS011;6306;47.134;15.344;2022-12-29T09:25:21;15.70;;;8.40;;
12482;SDS011;6306;47.134;15.344;2022-12-29T09:27:49;10.83;;;8.03;;
12482;SDS011;6306;47.134;15.344;2022-12-29T09:30:17;10.00;;;6.27;;
12482;SDS011;6306;47.134;15.344;2022-12-29T09:32:43;6.57;;;5.03;;
12482;SDS011;6306;47.134;15.344;2022-12-29T09:35:09;8.83;;;5.00;;
12482;SDS011;6306;47.134;15.344;2022-12-29T09:37:35;8.90;;;5.23;;
12482;SDS011;6306;47.134;15.344;2022-12-29T09:40:02;7.60;;;5.27;;
12482;SDS011;6306;47.134;15.344;2022-12-29T09:42:32;7.63;;;6.10;;
12482;SDS011;6306;47.134;15.344;2022-12-29T09:45:20;9.20;;;5.40;;
12482;SDS011;6306;47.134;15.344;2022-12-29T09:47:50;10.80;;;7.20;;
12482;SDS011;6306;47.134;15.344;2022-12-29T09:50:24;17.10;;;5.30;;
12482;SDS011;6306;47.134;15.344;2022-12-29T09:53:08;9.87;;;5.40;;
12482;SDS011;6306;47.134;15.344;2022-12-29T09:55:37;6.50;;;4.87;;
12482;SDS011;6306;47.134;15.344;2022-12-29T09:58:05;8.10;;;5.37;;
12482;SDS011;6306;47.134;15.344;2022-12-29T10:00:37;8.57;;;6.07;;
12482;SDS011;6306;47.134;15.344;2022-12-29T10:03:13;6.70;;;5.00;;
12482;SDS011;6306;47.134;15.344;2022-12-29T10:05:54;8.37;;;4.83;;
12482;SDS011;6306;47.134;15.344;2022-12-29T10:08:25;10.10;;;4.93;;
12482;SDS011;6306;47.134;15.344;2022-12-29T10:10:58;7.73;;;5.20;;
12482;SDS011;6306;47.134;15.344;2022-12-29T10:14:29;12.10;;;6.13;;
12482;SDS011;6306;47.134;15.344;2022-12-29T10:24:02;5.70;;;3.43;;
12482;SDS011;6306;47.134;15.344;2022-12-29T10:26:31;6.73;;;3.37;;
12482;SDS011;6306;47.134;15.344;2022-12-29T10:29:02;7.10;;;2.77;;
12482;SDS011;6306;47.134;15.344;2022-12-29T10:31:33;8.50;;;2.80;;
12482;SDS011;6306;47.134;15.344;2022-12-29T10:34:13;4.83;;;3.27;;
12482;SDS011;6306;47.134;15.344;2022-12-29T10:36:42;4.60;;;3.00;;
12482;SDS011;6306;47.134;15.344;2022-12-29T10:41:55;5.30;;;2.60;;
12482;SDS011;6306;47.134;15.344;2022-12-29T10:44:24;6.57;;;3.00;;
12482;SDS011;6306;47.134;15.344;2022-12-29T10:47:00;8.27;;;4.33;;
12482;SDS011;6306;47.134;15.344;2022-12-29T10:49:29;3.37;;;3.00;;
12482;SDS011;6306;47.134;15.344;2022-12-29T10:51:57;3.87;;;3.27;;
12482;SDS011;6306;47.134;15.344;2022-12-29T10:54:29;4.27;;;3.20;;
12482;SDS011;6306;47.134;15.344;2022-12-29T10:59:31;5.47;;;3.60;;
12482;SDS011;6306;47.134;15.344;2022-12-29T11:02:06;2.47;;;1.80;;
12482;SDS011;6306;47.134;15.344;2022-12-29T11:07:23;4.17;;;2.53;;
12482;SDS011;6306;47.134;15.344;2022-12-29T11:09:51;5.97;;;3.40;;
12482;SDS011;6306;47.134;15.344;2022-12-29T11:12:35;4.67;;;2.57;;
12482;SDS011;6306;47.134;15.344;2022-12-29T11:17:27;3.60;;;3.20;;
12482;SDS011;6306;47.134;15.344;2022-12-29T11:19:53;3.27;;;2.33;;
12482;SDS011;6306;47.134;15.344;2022-12-29T11:22:27;4.93;;;3.20;;
12482;SDS011;6306;47.134;15.344;2022-12-29T11:24:54;7.53;;;2.80;;
12482;SDS011;6306;47.134;15.344;2022-12-29T11:27:25;5.00;;;3.00;;
12482;SDS011;6306;47.134;15.344;2022-12-29T11:29:51;4.73;;;2.73;;
12482;SDS011;6306;47.134;15.344;2022-12-29T11:32:22;5.50;;;3.20;;
12482;SDS011;6306;47.134;15.344;2022-12-29T11:34:48;4.10;;;2.80;;
12482;SDS011;6306;47.134;15.344;2022-12-29T11:37:18;6.03;;;2.23;;
12482;SDS011;6306;47.134;15.344;2022-12-29T11:42:33;4.27;;;2.67;;
12482;SDS011;6306;47.134;15.344;2022-12-29T11:45:03;3.17;;;1.60;;
12482;SDS011;6306;47.134;15.344;2022-12-29T11:47:30;2.77;;;2.10;;
12482;SDS011;6306;47.134;15.344;2022-12-29T11:49:59;3.63;;;1.90;;
12482;SDS011;6306;47.134;15.344;2022-12-29T11:52:27;2.40;;;2.20;;
12482;SDS011;6306;47.134;15.344;2022-12-29T11:54:54;5.47;;;2.40;;
12482;SDS011;6306;47.134;15.344;2022-12-29T11:57:21;10.47;;;3.60;;
12482;SDS011;6306;47.134;15.344;2022-12-29T11:59:56;5.93;;;3.10;;
12482;SDS011;6306;47.134;15.344;2022-12-29T12:02:30;3.47;;;2.83;;
12482;SDS011;6306;47.134;15.344;2022-12-29T12:07:40;5.93;;;3.00;;
12482;SDS011;6306;47.134;15.344;2022-12-29T12:10:11;6.27;;;3.10;;
12482;SDS011;6306;47.134;15.344;2022-12-29T12:15:05;3.10;;;2.20;;
12482;SDS011;6306;47.134;15.344;2022-12-29T12:20:21;3.43;;;2.80;;
12482;SDS011;6306;47.134;15.344;2022-12-29T12:22:58;3.70;;;2.23;;
12482;SDS011;6306;47.134;15.344;2022-12-29T12:25:32;4.80;;;2.70;;
12482;SDS011;6306;47.134;15.344;2022-12-29T12:28:00;4.30;;;3.13;;
12482;SDS011;6306;47.134;15.344;2022-12-29T12:30:34;5.30;;;2.97;;
12482;SDS011;6306;47.134;15.344;2022-12-29T12:38:55;3.63;;;2.50;;
12482;SDS011;6306;47.134;15.344;2022-12-29T13:02:27;2.97;;;2.50;;
12482;SDS011;6306;47.134;15.344;2022-12-29T13:07:32;3.70;;;2.80;;
12482;SDS011;6306;47.134;15.344;2022-12-29T13:10:16;3.90;;;2.70;;
12482;SDS011;6306;47.134;15.344;2022-12-29T13:15:20;4.27;;;3.13;;
12482;SDS011;6306;47.134;15.344;2022-12-29T13:20:39;7.80;;;3.97;;
12482;SDS011;6306;47.134;15.344;2022-12-29T13:23:12;3.97;;;2.87;;
12482;SDS011;6306;47.134;15.344;2022-12-29T13:40:56;6.40;;;2.50;;
12482;SDS011;6306;47.134;15.344;2022-12-29T13:43:23;5.67;;;2.63;;
12482;SDS011;6306;47.134;15.344;2022-12-29T13:45:52;3.20;;;2.30;;
12482;SDS011;6306;47.134;15.344;2022-12-29T13:48:22;4.57;;;3.20;;
12482;SDS011;6306;47.134;15.344;2022-12-29T13:50:53;4.20;;;3.30;;
12482;SDS011;6306;47.134;15.344;2022-12-29T13:55:52;3.73;;;3.33;;
12482;SDS011;6306;47.134;15.344;2022-12-29T13:58:31;4.20;;;2.53;;
12482;SDS011;6306;47.134;15.344;2022-12-29T14:08:35;3.53;;;2.73;;
12482;SDS011;6306;47.134;15.344;2022-12-29T14:11:05;3.60;;;3.10;;
12482;SDS011;6306;47.134;15.344;2022-12-29T14:13:32;2.70;;;2.33;;
12482;SDS011;6306;47.134;15.344;2022-12-29T14:16:03;3.20;;;2.53;;
12482;SDS011;6306;47.134;15.344;2022-12-29T14:18:29;8.90;;;3.47;;
12482;SDS011;6306;47.134;15.344;2022-12-29T14:25:59;3.60;;;3.03;;
12482;SDS011;6306;47.134;15.344;2022-12-29T14:28:29;7.90;;;2.47;;
12482;SDS011;6306;47.134;15.344;2022-12-29T14:30:59;5.50;;;3.20;;
12482;SDS011;6306;47.134;15.344;2022-12-29T14:33:27;3.40;;;3.07;;
12482;SDS011;6306;47.134;15.344;2022-12-29T14:35:53;5.20;;;3.17;;
12482;SDS011;6306;47.134;15.344;2022-12-29T14:38:21;5.27;;;2.47;;
12482;SDS011;6306;47.134;15.344;2022-12-29T14:40:48;7.27;;;3.57;;
12482;SDS011;6306;47.134;15.344;2022-12-29T14:43:19;4.60;;;3.10;;
12482;SDS011;6306;47.134;15.344;2022-12-29T14:45:51;5.27;;;2.67;;
12482;SDS011;6306;47.134;15.344;2022-12-29T14:50:50;3.67;;;2.30;;
12482;SDS011;6306;47.134;15.344;2022-12-29T14:56:00;6.00;;;2.87;;
12482;SDS011;6306;47.134;15.344;2022-12-29T14:58:31;2.80;;;2.10;;
12482;SDS011;6306;47.134;15.344;2022-12-29T15:00:58;5.57;;;2.73;;
12482;SDS011;6306;47.134;15.344;2022-12-29T15:03:32;4.47;;;3.57;;
12482;SDS011;6306;47.134;15.344;2022-12-29T15:06:08;4.33;;;2.77;;
12482;SDS011;6306;47.134;15.344;2022-12-29T15:08:55;7.60;;;3.40;;
12482;SDS011;6306;47.134;15.344;2022-12-29T15:14:03;7.00;;;2.77;;
12482;SDS011;6306;47.134;15.344;2022-12-29T15:16:49;8.90;;;3.70;;
12482;SDS011;6306;47.134;15.344;2022-12-29T15:19:21;6.50;;;3.50;;
12482;SDS011;6306;47.134;15.344;2022-12-29T15:21:47;3.70;;;2.83;;
12482;SDS011;6306;47.134;15.344;2022-12-29T15:24:14;4.80;;;3.17;;
12482;SDS011;6306;47.134;15.344;2022-12-29T15:26:44;7.90;;;4.00;;
12482;SDS011;6306;47.134;15.344;2022-12-29T15:31:56;9.30;;;4.30;;
12482;SDS011;6306;47.134;15.344;2022-12-29T15:34:23;14.77;;;4.33;;
12482;SDS011;6306;47.134;15.344;2022-12-29T15:36:49;3.80;;;3.33;;
12482;SDS011;6306;47.134;15.344;2022-12-29T15:39:29;4.20;;;3.60;;
12482;SDS011;6306;47.134;15.344;2022-12-29T15:41:56;4.63;;;2.70;;
12482;SDS011;6306;47.134;15.344;2022-12-29T15:44:29;7.20;;;3.37;;
12482;SDS011;6306;47.134;15.344;2022-12-29T15:47:00;7.23;;;4.60;;
12482;SDS011;6306;47.134;15.344;2022-12-29T15:49:27;6.43;;;3.10;;
12482;SDS011;6306;47.134;15.344;2022-12-29T15:51:53;6.53;;;4.07;;
12482;SDS011;6306;47.134;15.344;2022-12-29T15:54:20;15.03;;;5.90;;
12482;SDS011;6306;47.134;15.344;2022-12-29T15:56:47;22.80;;;5.50;;
12482;SDS011;6306;47.134;15.344;2022-12-29T16:01:50;8.13;;;4.50;;
12482;SDS011;6306;47.134;15.344;2022-12-29T16:04:16;7.00;;;5.17;;
12482;SDS011;6306;47.134;15.344;2022-12-29T16:06:56;8.03;;;4.37;;
12482;SDS011;6306;47.134;15.344;2022-12-29T16:09:32;7.40;;;3.70;;
12482;SDS011;6306;47.134;15.344;2022-12-29T16:12:01;4.23;;;3.83;;
12482;SDS011;6306;47.134;15.344;2022-12-29T16:14:30;6.37;;;3.87;;
12482;SDS011;6306;47.134;15.344;2022-12-29T16:16:57;6.40;;;3.70;;
12482;SDS011;6306;47.134;15.344;2022-12-29T16:19:28;9.90;;;6.53;;
12482;SDS011;6306;47.134;15.344;2022-12-29T16:21:56;27.80;;;14.00;;
12482;SDS011;6306;47.134;15.344;2022-12-29T16:24:24;16.23;;;9.80;;
12482;SDS011;6306;47.134;15.344;2022-12-29T16:27:16;9.73;;;7.07;;
12482;SDS011;6306;47.134;15.344;2022-12-29T16:29:46;5.10;;;4.20;;
12482;SDS011;6306;47.134;15.344;2022-12-29T16:32:30;7.73;;;5.77;;
12482;SDS011;6306;47.134;15.344;2022-12-29T16:35:09;7.97;;;4.87;;
12482;SDS011;6306;47.134;15.344;2022-12-29T16:37:35;12.07;;;6.30;;
12482;SDS011;6306;47.134;15.344;2022-12-29T16:42:47;12.40;;;6.00;;
12482;SDS011;6306;47.134;15.344;2022-12-29T16:50:17;21.90;;;5.93;;
12482;SDS011;6306;47.134;15.344;2022-12-29T16:52:48;7.30;;;4.97;;
12482;SDS011;6306;47.134;15.344;2022-12-29T16:55:15;7.27;;;5.10;;
12482;SDS011;6306;47.134;15.344;2022-12-29T16:57:42;5.93;;;4.87;;
12482;SDS011;6306;47.134;15.344;2022-12-29T17:00:29;8.00;;;4.63;;
12482;SDS011;6306;47.134;15.344;2022-12-29T17:02:57;5.70;;;4.07;;
12482;SDS011;6306;47.134;15.344;2022-12-29T17:05:24;13.30;;;8.67;;
12482;SDS011;6306;47.134;15.344;2022-12-29T17:07:50;12.47;;;9.90;;
12482;SDS011;6306;47.134;15.344;2022-12-29T17:10:17;12.97;;;7.77;;
12482;SDS011;6306;47.134;15.344;2022-12-29T17:12:44;10.77;;;7.83;;
12482;SDS011;6306;47.134;15.344;2022-12-29T17:17:38;9.50;;;7.27;;
12482;SDS011;6306;47.134;15.344;2022-12-29T17:20:08;36.17;;;9.67;;
12482;SDS011;6306;47.134;15.344;2022-12-29T17:22:39;9.37;;;7.30;;
12482;SDS011;6306;47.134;15.344;2022-12-29T17:25:05;11.40;;;7.27;;
12482;SDS011;6306;47.134;15.344;2022-12-29T17:27:36;17.43;;;8.23;;
12482;SDS011;6306;47.134;15.344;2022-12-29T17:30:04;10.70;;;8.80;;
12482;SDS011;6306;47.134;15.344;2022-12-29T17:32:34;9.80;;;7.40;;
12482;SDS011;6306;47.134;15.344;2022-12-29T17:35:00;20.37;;;8.20;;
12482;SDS011;6306;47.134;15.344;2022-12-29T17:37:34;11.57;;;8.70;;